sensor_id;sensor_type;location;lat;lon;timestamp;P1;durP1;ratioP1;P2;durP2;ratioP2
14030;SDS011;7090;49.436;8.490;2022-10-16T00:01:20;0.47;;;0.47;;
14030;SDS011;7090;49.436;8.490;2022-10-16T00:03:47;0.85;;;0.60;;
14030;SDS011;7090;49.436;8.490;2022-10-16T00:06:14;0.30;;;0.30;;
14030;SDS011;7090;49.436;8.490;2022-10-16T00:08:41;0.40;;;0.40;;
14030;SDS011;7090;49.436;8.490;2022-10-16T00:11:19;0.40;;;0.40;;
14030;SDS011;7090;49.436;8.490;2022-10-16T00:13:47;0.45;;;0.45;;
14030;SDS011;7090;49.436;8.490;2022-10-16T00:16:14;0.40;;;0.40;;
14030;SDS011;7090;49.436;8.490;2022-10-16T00:18:40;0.80;;;0.80;;
14030;SDS011;7090;49.436;8.490;2022-10-16T00:21:07;0.40;;;0.40;;
14030;SDS011;7090;49.436;8.490;2022-10-16T00:23:35;1.00;;;1.00;;
14030;SDS011;7090;49.436;8.490;2022-10-16T00:26:02;0.30;;;0.30;;
14030;SDS011;7090;49.436;8.490;2022-10-16T00:28:33;0.40;;;0.40;;
14030;SDS011;7090;49.436;8.490;2022-10-16T00:30:59;0.35;;;0.35;;
14030;SDS011;7090;49.436;8.490;2022-10-16T00:33:28;0.40;;;0.40;;
14030;SDS011;7090;49.436;8.490;2022-10-16T00:35:57;0.50;;;0.43;;
14030;SDS011;7090;49.436;8.490;2022-10-16T00:38:23;0.40;;;0.40;;
14030;SDS011;7090;49.436;8.490;2022-10-16T00:40:49;0.40;;;0.40;;
14030;SDS011;7090;49.436;8.490;2022-10-16T00:43:32;0.50;;;0.50;;
14030;SDS011;7090;49.436;8.490;2022-10-16T00:46:01;0.60;;;0.60;;
14030;SDS011;7090;49.436;8.490;2022-10-16T00:48:29;1.33;;;1.23;;
14030;SDS011;7090;49.436;8.490;2022-10-16T00:50:55;2.00;;;1.25;;
14030;SDS011;7090;49.436;8.490;2022-10-16T00:53:23;0.40;;;0.40;;
14030;SDS011;7090;49.436;8.490;2022-10-16T00:55:50;0.57;;;0.57;;
14030;SDS011;7090;49.436;8.490;2022-10-16T00:58:16;1.15;;;1.15;;
14030;SDS011;7090;49.436;8.490;2022-10-16T01:00:42;0.70;;;0.70;;
14030;SDS011;7090;49.436;8.490;2022-10-16T01:03:27;0.60;;;0.60;;
14030;SDS011;7090;49.436;8.490;2022-10-16T01:08:49;0.68;;;0.68;;
14030;SDS011;7090;49.436;8.490;2022-10-16T01:11:40;0.50;;;0.50;;
14030;SDS011;7090;49.436;8.490;2022-10-16T01:17:11;0.40;;;0.40;;
14030;SDS011;7090;49.436;8.490;2022-10-16T01:22:57;0.65;;;0.65;;
14030;SDS011;7090;49.436;8.490;2022-10-16T01:25:32;0.45;;;0.45;;
14030;SDS011;7090;49.436;8.490;2022-10-16T01:28:21;0.40;;;0.40;;
14030;SDS011;7090;49.436;8.490;2022-10-16T01:30:50;0.30;;;0.30;;
14030;SDS011;7090;49.436;8.490;2022-10-16T01:33:20;0.45;;;0.45;;
14030;SDS011;7090;49.436;8.490;2022-10-16T01:35:56;0.40;;;0.40;;
14030;SDS011;7090;49.436;8.490;2022-10-16T01:38:32;0.60;;;0.60;;
14030;SDS011;7090;49.436;8.490;2022-10-16T01:41:05;0.40;;;0.40;;
14030;SDS011;7090;49.436;8.490;2022-10-16T01:43:48;0.50;;;0.50;;
14030;SDS011;7090;49.436;8.490;2022-10-16T01:46:23;0.57;;;0.57;;
14030;SDS011;7090;49.436;8.490;2022-10-16T01:48:51;0.40;;;0.40;;
14030;SDS011;7090;49.436;8.490;2022-10-16T01:51:18;0.70;;;0.70;;
14030;SDS011;7090;49.436;8.490;2022-10-16T01:53:52;0.60;;;0.60;;
14030;SDS011;7090;49.436;8.490;2022-10-16T01:56:20;0.50;;;0.50;;
14030;SDS011;7090;49.436;8.490;2022-10-16T01:58:58;1.65;;;1.15;;
14030;SDS011;7090;49.436;8.490;2022-10-16T02:01:28;0.98;;;0.85;;
14030;SDS011;7090;49.436;8.490;2022-10-16T02:03:57;0.40;;;0.40;;
14030;SDS011;7090;49.436;8.490;2022-10-16T02:06:26;0.40;;;0.40;;
14030;SDS011;7090;49.436;8.490;2022-10-16T02:08:53;3.35;;;1.90;;
14030;SDS011;7090;49.436;8.490;2022-10-16T02:11:18;0.50;;;0.50;;
14030;SDS011;7090;49.436;8.490;2022-10-16T02:13:48;0.40;;;0.40;;
14030;SDS011;7090;49.436;8.490;2022-10-16T02:16:20;0.47;;;0.47;;
14030;SDS011;7090;49.436;8.490;2022-10-16T02:18:45;1.00;;;1.00;;
14030;SDS011;7090;49.436;8.490;2022-10-16T02:21:17;0.50;;;0.50;;
14030;SDS011;7090;49.436;8.490;2022-10-16T02:26:19;2.42;;;1.00;;
14030;SDS011;7090;49.436;8.490;2022-10-16T02:28:55;0.60;;;0.60;;
14030;SDS011;7090;49.436;8.490;2022-10-16T02:31:27;1.13;;;1.02;;
14030;SDS011;7090;49.436;8.490;2022-10-16T02:33:56;0.30;;;0.30;;
14030;SDS011;7090;49.436;8.490;2022-10-16T02:36:24;1.00;;;1.00;;
14030;SDS011;7090;49.436;8.490;2022-10-16T02:38:51;0.38;;;0.38;;
14030;SDS011;7090;49.436;8.490;2022-10-16T02:41:18;0.40;;;0.40;;
14030;SDS011;7090;49.436;8.490;2022-10-16T02:43:46;0.80;;;0.80;;
14030;SDS011;7090;49.436;8.490;2022-10-16T02:46:12;6.20;;;0.70;;
14030;SDS011;7090;49.436;8.490;2022-10-16T02:48:37;1.13;;;1.05;;
14030;SDS011;7090;49.436;8.490;2022-10-16T02:51:04;0.40;;;0.40;;
14030;SDS011;7090;49.436;8.490;2022-10-16T02:53:30;0.40;;;0.40;;
14030;SDS011;7090;49.436;8.490;2022-10-16T02:55:56;0.60;;;0.60;;
14030;SDS011;7090;49.436;8.490;2022-10-16T02:58:21;0.40;;;0.40;;
14030;SDS011;7090;49.436;8.490;2022-10-16T03:00:47;0.40;;;0.40;;
14030;SDS011;7090;49.436;8.490;2022-10-16T03:03:12;0.50;;;0.50;;
14030;SDS011;7090;49.436;8.490;2022-10-16T03:05:38;0.30;;;0.30;;
14030;SDS011;7090;49.436;8.490;2022-10-16T03:08:04;0.57;;;0.57;;
14030;SDS011;7090;49.436;8.490;2022-10-16T03:10:29;0.50;;;0.50;;
14030;SDS011;7090;49.436;8.490;2022-10-16T03:12:55;0.30;;;0.30;;
14030;SDS011;7090;49.436;8.490;2022-10-16T03:15:21;0.75;;;0.75;;
14030;SDS011;7090;49.436;8.490;2022-10-16T03:17:46;0.38;;;0.38;;
14030;SDS011;7090;49.436;8.490;2022-10-16T03:20:12;0.40;;;0.40;;
14030;SDS011;7090;49.436;8.490;2022-10-16T03:22:37;0.25;;;0.25;;
14030;SDS011;7090;49.436;8.490;2022-10-16T03:25:03;2.30;;;1.13;;
14030;SDS011;7090;49.436;8.490;2022-10-16T03:27:29;0.80;;;0.80;;
14030;SDS011;7090;49.436;8.490;2022-10-16T03:29:55;0.90;;;0.85;;
14030;SDS011;7090;49.436;8.490;2022-10-16T03:32:20;3.63;;;1.23;;
14030;SDS011;7090;49.436;8.490;2022-10-16T03:34:46;0.40;;;0.40;;
14030;SDS011;7090;49.436;8.490;2022-10-16T03:37:12;0.70;;;0.70;;
14030;SDS011;7090;49.436;8.490;2022-10-16T03:39:37;0.20;;;0.20;;
14030;SDS011;7090;49.436;8.490;2022-10-16T03:42:03;0.30;;;0.30;;
14030;SDS011;7090;49.436;8.490;2022-10-16T03:44:29;0.40;;;0.40;;
14030;SDS011;7090;49.436;8.490;2022-10-16T03:46:55;0.88;;;0.88;;
14030;SDS011;7090;49.436;8.490;2022-10-16T03:49:20;1.08;;;1.08;;
14030;SDS011;7090;49.436;8.490;2022-10-16T03:51:46;0.30;;;0.30;;
14030;SDS011;7090;49.436;8.490;2022-10-16T03:54:11;0.30;;;0.30;;
14030;SDS011;7090;49.436;8.490;2022-10-16T03:56:38;0.30;;;0.30;;
14030;SDS011;7090;49.436;8.490;2022-10-16T03:59:03;0.40;;;0.40;;
14030;SDS011;7090;49.436;8.490;2022-10-16T04:01:29;0.20;;;0.20;;
14030;SDS011;7090;49.436;8.490;2022-10-16T04:03:55;0.68;;;0.68;;
14030;SDS011;7090;49.436;8.490;2022-10-16T04:06:20;0.30;;;0.30;;
14030;SDS011;7090;49.436;8.490;2022-10-16T04:08:46;0.77;;;0.77;;
14030;SDS011;7090;49.436;8.490;2022-10-16T04:11:13;0.30;;;0.30;;
14030;SDS011;7090;49.436;8.490;2022-10-16T04:13:38;5.57;;;0.85;;
14030;SDS011;7090;49.436;8.490;2022-10-16T04:16:04;0.30;;;0.30;;
14030;SDS011;7090;49.436;8.490;2022-10-16T04:18:30;1.95;;;0.95;;
14030;SDS011;7090;49.436;8.490;2022-10-16T04:20:55;0.55;;;0.55;;
14030;SDS011;7090;49.436;8.490;2022-10-16T04:23:21;0.40;;;0.40;;
14030;SDS011;7090;49.436;8.490;2022-10-16T04:25:48;0.65;;;0.65;;
14030;SDS011;7090;49.436;8.490;2022-10-16T04:28:14;0.30;;;0.30;;
14030;SDS011;7090;49.436;8.490;2022-10-16T04:30:39;0.30;;;0.30;;
14030;SDS011;7090;49.436;8.490;2022-10-16T04:33:05;0.30;;;0.30;;
14030;SDS011;7090;49.436;8.490;2022-10-16T04:35:30;0.50;;;0.50;;
14030;SDS011;7090;49.436;8.490;2022-10-16T04:37:59;0.77;;;0.77;;
14030;SDS011;7090;49.436;8.490;2022-10-16T04:40:24;0.40;;;0.40;;
14030;SDS011;7090;49.436;8.490;2022-10-16T04:42:50;1.05;;;1.05;;
14030;SDS011;7090;49.436;8.490;2022-10-16T04:45:16;0.82;;;0.82;;
14030;SDS011;7090;49.436;8.490;2022-10-16T04:47:41;0.45;;;0.45;;
14030;SDS011;7090;49.436;8.490;2022-10-16T04:50:07;0.88;;;0.82;;
14030;SDS011;7090;49.436;8.490;2022-10-16T04:52:33;0.50;;;0.50;;
14030;SDS011;7090;49.436;8.490;2022-10-16T04:54:59;0.70;;;0.70;;
14030;SDS011;7090;49.436;8.490;2022-10-16T04:57:27;0.60;;;0.60;;
14030;SDS011;7090;49.436;8.490;2022-10-16T04:59:53;0.70;;;0.70;;
14030;SDS011;7090;49.436;8.490;2022-10-16T05:02:19;1.10;;;1.10;;
14030;SDS011;7090;49.436;8.490;2022-10-16T05:04:44;1.60;;;0.75;;
14030;SDS011;7090;49.436;8.490;2022-10-16T05:07:10;1.40;;;1.30;;
14030;SDS011;7090;49.436;8.490;2022-10-16T05:09:35;1.55;;;1.15;;
14030;SDS011;7090;49.436;8.490;2022-10-16T05:12:01;1.08;;;0.88;;
14030;SDS011;7090;49.436;8.490;2022-10-16T05:14:28;0.52;;;0.52;;
14030;SDS011;7090;49.436;8.490;2022-10-16T05:16:54;0.40;;;0.40;;
14030;SDS011;7090;49.436;8.490;2022-10-16T05:19:19;2.17;;;1.25;;
14030;SDS011;7090;49.436;8.490;2022-10-16T05:21:45;0.82;;;0.82;;
14030;SDS011;7090;49.436;8.490;2022-10-16T05:24:10;0.50;;;0.50;;
14030;SDS011;7090;49.436;8.490;2022-10-16T05:26:36;1.25;;;1.15;;
14030;SDS011;7090;49.436;8.490;2022-10-16T05:29:02;0.63;;;0.63;;
14030;SDS011;7090;49.436;8.490;2022-10-16T05:31:28;0.93;;;0.93;;
14030;SDS011;7090;49.436;8.490;2022-10-16T05:33:57;1.52;;;1.27;;
14030;SDS011;7090;49.436;8.490;2022-10-16T05:36:24;0.65;;;0.65;;
14030;SDS011;7090;49.436;8.490;2022-10-16T05:38:50;0.80;;;0.80;;
14030;SDS011;7090;49.436;8.490;2022-10-16T05:41:16;2.22;;;1.35;;
14030;SDS011;7090;49.436;8.490;2022-10-16T05:43:46;1.05;;;1.05;;
14030;SDS011;7090;49.436;8.490;2022-10-16T05:46:12;0.85;;;0.85;;
14030;SDS011;7090;49.436;8.490;2022-10-16T05:48:38;3.25;;;1.63;;
14030;SDS011;7090;49.436;8.490;2022-10-16T05:51:04;1.35;;;1.25;;
14030;SDS011;7090;49.436;8.490;2022-10-16T05:53:35;1.58;;;1.35;;
14030;SDS011;7090;49.436;8.490;2022-10-16T05:56:02;1.23;;;1.23;;
14030;SDS011;7090;49.436;8.490;2022-10-16T05:58:29;1.33;;;1.23;;
14030;SDS011;7090;49.436;8.490;2022-10-16T06:00:58;1.00;;;1.00;;
14030;SDS011;7090;49.436;8.490;2022-10-16T06:03:26;0.80;;;0.80;;
14030;SDS011;7090;49.436;8.490;2022-10-16T06:05:52;0.73;;;0.73;;
14030;SDS011;7090;49.436;8.490;2022-10-16T06:08:18;1.48;;;1.38;;
14030;SDS011;7090;49.436;8.490;2022-10-16T06:10:45;0.70;;;0.70;;
14030;SDS011;7090;49.436;8.490;2022-10-16T06:13:12;0.60;;;0.60;;
14030;SDS011;7090;49.436;8.490;2022-10-16T06:15:39;0.60;;;0.60;;
14030;SDS011;7090;49.436;8.490;2022-10-16T06:18:07;0.73;;;0.73;;
14030;SDS011;7090;49.436;8.490;2022-10-16T06:20:33;0.95;;;0.95;;
14030;SDS011;7090;49.436;8.490;2022-10-16T06:22:59;0.85;;;0.85;;
14030;SDS011;7090;49.436;8.490;2022-10-16T06:25:25;0.80;;;0.80;;
14030;SDS011;7090;49.436;8.490;2022-10-16T06:27:50;0.93;;;0.93;;
14030;SDS011;7090;49.436;8.490;2022-10-16T06:30:16;0.90;;;0.90;;
14030;SDS011;7090;49.436;8.490;2022-10-16T06:32:41;0.90;;;0.90;;
14030;SDS011;7090;49.436;8.490;2022-10-16T06:35:07;0.80;;;0.80;;
14030;SDS011;7090;49.436;8.490;2022-10-16T06:37:32;0.70;;;0.70;;
14030;SDS011;7090;49.436;8.490;2022-10-16T06:39:58;1.10;;;1.10;;
14030;SDS011;7090;49.436;8.490;2022-10-16T06:42:25;0.85;;;0.85;;
14030;SDS011;7090;49.436;8.490;2022-10-16T06:44:51;1.20;;;1.10;;
14030;SDS011;7090;49.436;8.490;2022-10-16T06:47:16;1.38;;;1.38;;
14030;SDS011;7090;49.436;8.490;2022-10-16T06:49:42;0.80;;;0.80;;
14030;SDS011;7090;49.436;8.490;2022-10-16T06:52:07;0.68;;;0.68;;
14030;SDS011;7090;49.436;8.490;2022-10-16T06:54:33;0.60;;;0.60;;
14030;SDS011;7090;49.436;8.490;2022-10-16T06:56:59;0.70;;;0.70;;
14030;SDS011;7090;49.436;8.490;2022-10-16T06:59:25;0.63;;;0.63;;
14030;SDS011;7090;49.436;8.490;2022-10-16T07:01:50;0.60;;;0.60;;
14030;SDS011;7090;49.436;8.490;2022-10-16T07:04:16;1.10;;;1.10;;
14030;SDS011;7090;49.436;8.490;2022-10-16T07:06:41;1.50;;;1.40;;
14030;SDS011;7090;49.436;8.490;2022-10-16T07:09:08;1.05;;;1.05;;
14030;SDS011;7090;49.436;8.490;2022-10-16T07:11:35;1.85;;;1.75;;
14030;SDS011;7090;49.436;8.490;2022-10-16T07:14:03;0.93;;;0.93;;
14030;SDS011;7090;49.436;8.490;2022-10-16T07:16:30;1.85;;;0.98;;
14030;SDS011;7090;49.436;8.490;2022-10-16T07:18:57;1.05;;;0.95;;
14030;SDS011;7090;49.436;8.490;2022-10-16T07:21:24;1.23;;;1.23;;
14030;SDS011;7090;49.436;8.490;2022-10-16T07:23:52;0.88;;;0.88;;
14030;SDS011;7090;49.436;8.490;2022-10-16T07:26:20;3.30;;;0.95;;
14030;SDS011;7090;49.436;8.490;2022-10-16T07:28:46;0.60;;;0.60;;
14030;SDS011;7090;49.436;8.490;2022-10-16T07:31:12;1.67;;;1.02;;
14030;SDS011;7090;49.436;8.490;2022-10-16T07:33:39;1.65;;;1.30;;
14030;SDS011;7090;49.436;8.490;2022-10-16T07:36:10;12.52;;;2.33;;
14030;SDS011;7090;49.436;8.490;2022-10-16T07:38:37;0.47;;;0.47;;
14030;SDS011;7090;49.436;8.490;2022-10-16T07:41:04;0.50;;;0.50;;
14030;SDS011;7090;49.436;8.490;2022-10-16T07:43:31;0.75;;;0.75;;
14030;SDS011;7090;49.436;8.490;2022-10-16T07:45:57;0.50;;;0.50;;
14030;SDS011;7090;49.436;8.490;2022-10-16T07:48:23;0.50;;;0.50;;
14030;SDS011;7090;49.436;8.490;2022-10-16T07:50:51;0.50;;;0.50;;
14030;SDS011;7090;49.436;8.490;2022-10-16T07:53:17;0.50;;;0.50;;
14030;SDS011;7090;49.436;8.490;2022-10-16T07:55:42;0.75;;;0.75;;
14030;SDS011;7090;49.436;8.490;2022-10-16T07:58:08;0.77;;;0.77;;
14030;SDS011;7090;49.436;8.490;2022-10-16T08:00:35;0.90;;;0.90;;
14030;SDS011;7090;49.436;8.490;2022-10-16T08:03:01;0.90;;;0.90;;
14030;SDS011;7090;49.436;8.490;2022-10-16T08:05:27;0.80;;;0.80;;
14030;SDS011;7090;49.436;8.490;2022-10-16T08:07:54;0.90;;;0.88;;
14030;SDS011;7090;49.436;8.490;2022-10-16T08:10:21;0.90;;;0.90;;
14030;SDS011;7090;49.436;8.490;2022-10-16T08:12:48;0.70;;;0.70;;
14030;SDS011;7090;49.436;8.490;2022-10-16T08:15:14;1.05;;;1.05;;
14030;SDS011;7090;49.436;8.490;2022-10-16T08:17:39;1.13;;;1.13;;
14030;SDS011;7090;49.436;8.490;2022-10-16T08:20:05;1.10;;;1.10;;
14030;SDS011;7090;49.436;8.490;2022-10-16T08:22:31;0.80;;;0.80;;
14030;SDS011;7090;49.436;8.490;2022-10-16T08:24:56;0.75;;;0.75;;
14030;SDS011;7090;49.436;8.490;2022-10-16T08:27:22;0.95;;;0.95;;
14030;SDS011;7090;49.436;8.490;2022-10-16T08:29:50;1.88;;;1.40;;
14030;SDS011;7090;49.436;8.490;2022-10-16T08:32:16;0.70;;;0.70;;
14030;SDS011;7090;49.436;8.490;2022-10-16T08:34:42;0.70;;;0.70;;
14030;SDS011;7090;49.436;8.490;2022-10-16T08:37:07;1.20;;;1.20;;
14030;SDS011;7090;49.436;8.490;2022-10-16T08:39:36;1.75;;;0.90;;
14030;SDS011;7090;49.436;8.490;2022-10-16T08:42:14;2.40;;;1.77;;
14030;SDS011;7090;49.436;8.490;2022-10-16T08:50:31;2.03;;;1.35;;
14030;SDS011;7090;49.436;8.490;2022-10-16T08:53:01;1.33;;;1.33;;
14030;SDS011;7090;49.436;8.490;2022-10-16T08:55:31;1.00;;;1.00;;
14030;SDS011;7090;49.436;8.490;2022-10-16T08:58:13;1.50;;;1.40;;
14030;SDS011;7090;49.436;8.490;2022-10-16T09:00:49;1.00;;;1.00;;
14030;SDS011;7090;49.436;8.490;2022-10-16T09:06:03;1.65;;;1.52;;
14030;SDS011;7090;49.436;8.490;2022-10-16T09:11:38;1.10;;;1.10;;
14030;SDS011;7090;49.436;8.490;2022-10-16T09:17:22;0.95;;;0.95;;
14030;SDS011;7090;49.436;8.490;2022-10-16T09:22:34;1.73;;;1.73;;
14030;SDS011;7090;49.436;8.490;2022-10-16T09:25:01;2.65;;;2.55;;
14030;SDS011;7090;49.436;8.490;2022-10-16T09:27:37;1.90;;;1.90;;
14030;SDS011;7090;49.436;8.490;2022-10-16T09:30:12;1.83;;;1.80;;
14030;SDS011;7090;49.436;8.490;2022-10-16T09:32:39;2.00;;;2.00;;
14030;SDS011;7090;49.436;8.490;2022-10-16T09:35:09;2.30;;;2.20;;
14030;SDS011;7090;49.436;8.490;2022-10-16T09:37:42;2.10;;;2.00;;
14030;SDS011;7090;49.436;8.490;2022-10-16T09:40:30;2.03;;;1.95;;
14030;SDS011;7090;49.436;8.490;2022-10-16T09:46:04;1.55;;;1.55;;
14030;SDS011;7090;49.436;8.490;2022-10-16T09:48:43;2.13;;;2.03;;
14030;SDS011;7090;49.436;8.490;2022-10-16T09:51:19;1.40;;;1.40;;
14030;SDS011;7090;49.436;8.490;2022-10-16T09:53:48;1.50;;;1.50;;
14030;SDS011;7090;49.436;8.490;2022-10-16T09:56:22;1.80;;;1.70;;
14030;SDS011;7090;49.436;8.490;2022-10-16T09:58:58;2.42;;;2.17;;
14030;SDS011;7090;49.436;8.490;2022-10-16T10:02:08;2.45;;;2.35;;
14030;SDS011;7090;49.436;8.490;2022-10-16T10:04:16;2.70;;;2.50;;
14030;SDS011;7090;49.436;8.490;2022-10-16T10:06:46;2.22;;;2.13;;
14030;SDS011;7090;49.436;8.490;2022-10-16T10:09:23;3.15;;;2.20;;
14030;SDS011;7090;49.436;8.490;2022-10-16T10:12:03;2.10;;;2.00;;
14030;SDS011;7090;49.436;8.490;2022-10-16T10:17:17;2.35;;;2.17;;
14030;SDS011;7090;49.436;8.490;2022-10-16T10:25:12;2.70;;;2.50;;
14030;SDS011;7090;49.436;8.490;2022-10-16T10:38:46;2.05;;;1.95;;
14030;SDS011;7090;49.436;8.490;2022-10-16T10:41:24;2.00;;;1.95;;
14030;SDS011;7090;49.436;8.490;2022-10-16T10:55:06;1.30;;;1.30;;
14030;SDS011;7090;49.436;8.490;2022-10-16T10:57:50;1.20;;;1.20;;
14030;SDS011;7090;49.436;8.490;2022-10-16T11:00:53;1.92;;;1.83;;
14030;SDS011;7090;49.436;8.490;2022-10-16T11:06:26;1.90;;;1.83;;
14030;SDS011;7090;49.436;8.490;2022-10-16T11:08:59;3.33;;;2.72;;
14030;SDS011;7090;49.436;8.490;2022-10-16T11:11:34;1.85;;;1.75;;
14030;SDS011;7090;49.436;8.490;2022-10-16T11:14:15;1.52;;;1.42;;
14030;SDS011;7090;49.436;8.490;2022-10-16T11:16:49;1.33;;;1.33;;
14030;SDS011;7090;49.436;8.490;2022-10-16T11:21:59;1.10;;;1.10;;
14030;SDS011;7090;49.436;8.490;2022-10-16T11:24:49;2.72;;;2.53;;
14030;SDS011;7090;49.436;8.490;2022-10-16T11:38:34;2.67;;;2.47;;
14030;SDS011;7090;49.436;8.490;2022-10-16T11:41:20;2.53;;;2.45;;
14030;SDS011;7090;49.436;8.490;2022-10-16T11:44:03;2.08;;;2.03;;
14030;SDS011;7090;49.436;8.490;2022-10-16T11:46:52;2.13;;;1.98;;
14030;SDS011;7090;49.436;8.490;2022-10-16T11:49:26;1.95;;;1.85;;
14030;SDS011;7090;49.436;8.490;2022-10-16T11:54:35;1.50;;;1.50;;
14030;SDS011;7090;49.436;8.490;2022-10-16T11:57:09;1.50;;;1.50;;
14030;SDS011;7090;49.436;8.490;2022-10-16T11:59:44;1.60;;;1.60;;
14030;SDS011;7090;49.436;8.490;2022-10-16T12:07:51;2.53;;;2.28;;
14030;SDS011;7090;49.436;8.490;2022-10-16T12:10:29;1.40;;;1.40;;
14030;SDS011;7090;49.436;8.490;2022-10-16T12:13:02;2.95;;;1.95;;
14030;SDS011;7090;49.436;8.490;2022-10-16T12:15:32;2.80;;;1.85;;
14030;SDS011;7090;49.436;8.490;2022-10-16T12:17:59;1.40;;;1.40;;
14030;SDS011;7090;49.436;8.490;2022-10-16T12:20:32;2.80;;;1.95;;
14030;SDS011;7090;49.436;8.490;2022-10-16T12:23:02;2.13;;;1.60;;
14030;SDS011;7090;49.436;8.490;2022-10-16T12:25:33;1.30;;;1.30;;
14030;SDS011;7090;49.436;8.490;2022-10-16T12:28:16;2.13;;;2.03;;
14030;SDS011;7090;49.436;8.490;2022-10-16T12:30:57;2.45;;;2.25;;
14030;SDS011;7090;49.436;8.490;2022-10-16T12:35:52;1.90;;;1.80;;
14030;SDS011;7090;49.436;8.490;2022-10-16T12:38:45;2.15;;;2.05;;
14030;SDS011;7090;49.436;8.490;2022-10-16T12:41:23;1.50;;;1.50;;
14030;SDS011;7090;49.436;8.490;2022-10-16T12:43:54;1.92;;;1.88;;
14030;SDS011;7090;49.436;8.490;2022-10-16T12:46:26;2.47;;;2.25;;
14030;SDS011;7090;49.436;8.490;2022-10-16T12:51:41;1.90;;;1.80;;
14030;SDS011;7090;49.436;8.490;2022-10-16T12:54:14;1.70;;;1.60;;
14030;SDS011;7090;49.436;8.490;2022-10-16T13:01:56;2.55;;;2.30;;
14030;SDS011;7090;49.436;8.490;2022-10-16T13:18:19;2.33;;;2.15;;
14030;SDS011;7090;49.436;8.490;2022-10-16T13:21:11;2.05;;;1.95;;
14030;SDS011;7090;49.436;8.490;2022-10-16T13:27:02;2.17;;;2.08;;
14030;SDS011;7090;49.436;8.490;2022-10-16T13:29:34;2.17;;;2.08;;
14030;SDS011;7090;49.436;8.490;2022-10-16T13:32:00;1.85;;;1.75;;
14030;SDS011;7090;49.436;8.490;2022-10-16T13:34:32;1.90;;;1.80;;
14030;SDS011;7090;49.436;8.490;2022-10-16T13:36:57;2.17;;;2.08;;
14030;SDS011;7090;49.436;8.490;2022-10-16T13:44:48;1.73;;;1.63;;
14030;SDS011;7090;49.436;8.490;2022-10-16T13:49:58;1.70;;;1.70;;
14030;SDS011;7090;49.436;8.490;2022-10-16T13:52:28;1.80;;;1.80;;
14030;SDS011;7090;49.436;8.490;2022-10-16T13:54:53;2.22;;;2.15;;
14030;SDS011;7090;49.436;8.490;2022-10-16T13:57:21;2.20;;;2.10;;
14030;SDS011;7090;49.436;8.490;2022-10-16T13:59:49;1.80;;;1.80;;
14030;SDS011;7090;49.436;8.490;2022-10-16T14:04:44;2.22;;;2.13;;
14030;SDS011;7090;49.436;8.490;2022-10-16T14:07:13;1.75;;;1.70;;
14030;SDS011;7090;49.436;8.490;2022-10-16T14:09:41;2.20;;;2.10;;
14030;SDS011;7090;49.436;8.490;2022-10-16T14:12:10;2.38;;;2.28;;
14030;SDS011;7090;49.436;8.490;2022-10-16T14:14:40;2.20;;;2.10;;
14030;SDS011;7090;49.436;8.490;2022-10-16T14:17:15;2.20;;;2.10;;
14030;SDS011;7090;49.436;8.490;2022-10-16T14:19:46;2.40;;;2.30;;
14030;SDS011;7090;49.436;8.490;2022-10-16T14:22:19;2.33;;;2.15;;
14030;SDS011;7090;49.436;8.490;2022-10-16T14:24:57;2.83;;;2.25;;
14030;SDS011;7090;49.436;8.490;2022-10-16T14:27:28;1.80;;;1.80;;
14030;SDS011;7090;49.436;8.490;2022-10-16T14:32:42;2.05;;;2.00;;
14030;SDS011;7090;49.436;8.490;2022-10-16T14:35:28;1.98;;;1.98;;
14030;SDS011;7090;49.436;8.490;2022-10-16T14:37:55;2.30;;;2.20;;
14030;SDS011;7090;49.436;8.490;2022-10-16T14:40:23;2.13;;;2.13;;
14030;SDS011;7090;49.436;8.490;2022-10-16T14:42:57;2.00;;;2.00;;
14030;SDS011;7090;49.436;8.490;2022-10-16T14:45:25;2.08;;;2.08;;
14030;SDS011;7090;49.436;8.490;2022-10-16T14:47:56;3.83;;;2.65;;
14030;SDS011;7090;49.436;8.490;2022-10-16T14:50:24;2.55;;;2.45;;
14030;SDS011;7090;49.436;8.490;2022-10-16T14:52:49;2.40;;;2.30;;
14030;SDS011;7090;49.436;8.490;2022-10-16T14:55:15;2.40;;;2.30;;
14030;SDS011;7090;49.436;8.490;2022-10-16T14:57:42;2.63;;;2.53;;
14030;SDS011;7090;49.436;8.490;2022-10-16T15:00:22;1.90;;;1.90;;
14030;SDS011;7090;49.436;8.490;2022-10-16T15:02:49;2.00;;;2.00;;
14030;SDS011;7090;49.436;8.490;2022-10-16T15:07:41;2.70;;;2.60;;
14030;SDS011;7090;49.436;8.490;2022-10-16T15:10:07;2.33;;;2.22;;
14030;SDS011;7090;49.436;8.490;2022-10-16T15:12:33;1.90;;;1.90;;
14030;SDS011;7090;49.436;8.490;2022-10-16T15:14:58;2.05;;;2.05;;
14030;SDS011;7090;49.436;8.490;2022-10-16T15:17:24;1.70;;;1.70;;
14030;SDS011;7090;49.436;8.490;2022-10-16T15:19:50;1.90;;;1.80;;
14030;SDS011;7090;49.436;8.490;2022-10-16T15:22:16;1.40;;;1.40;;
14030;SDS011;7090;49.436;8.490;2022-10-16T15:24:42;2.30;;;2.10;;
14030;SDS011;7090;49.436;8.490;2022-10-16T15:27:08;1.80;;;1.80;;
14030;SDS011;7090;49.436;8.490;2022-10-16T15:29:34;1.90;;;1.90;;
14030;SDS011;7090;49.436;8.490;2022-10-16T15:31:59;1.70;;;1.70;;
14030;SDS011;7090;49.436;8.490;2022-10-16T15:34:25;2.00;;;2.00;;
14030;SDS011;7090;49.436;8.490;2022-10-16T15:36:50;2.40;;;2.30;;
14030;SDS011;7090;49.436;8.490;2022-10-16T15:39:18;2.22;;;2.13;;
14030;SDS011;7090;49.436;8.490;2022-10-16T15:41:45;1.98;;;1.98;;
14030;SDS011;7090;49.436;8.490;2022-10-16T15:44:19;2.53;;;2.42;;
14030;SDS011;7090;49.436;8.490;2022-10-16T15:46:45;2.33;;;2.22;;
14030;SDS011;7090;49.436;8.490;2022-10-16T15:49:11;1.55;;;1.55;;
14030;SDS011;7090;49.436;8.490;2022-10-16T15:51:37;1.52;;;1.52;;
14030;SDS011;7090;49.436;8.490;2022-10-16T15:54:04;1.50;;;1.50;;
14030;SDS011;7090;49.436;8.490;2022-10-16T15:56:30;2.03;;;1.88;;
14030;SDS011;7090;49.436;8.490;2022-10-16T15:58:58;1.50;;;1.50;;
14030;SDS011;7090;49.436;8.490;2022-10-16T16:01:27;1.75;;;1.65;;
14030;SDS011;7090;49.436;8.490;2022-10-16T16:03:54;1.23;;;1.23;;
14030;SDS011;7090;49.436;8.490;2022-10-16T16:06:20;1.40;;;1.40;;
14030;SDS011;7090;49.436;8.490;2022-10-16T16:08:47;1.52;;;1.52;;
14030;SDS011;7090;49.436;8.490;2022-10-16T16:11:13;2.17;;;1.88;;
14030;SDS011;7090;49.436;8.490;2022-10-16T16:13:40;1.77;;;1.77;;
14030;SDS011;7090;49.436;8.490;2022-10-16T16:16:09;1.90;;;1.90;;
14030;SDS011;7090;49.436;8.490;2022-10-16T16:18:37;1.90;;;1.90;;
14030;SDS011;7090;49.436;8.490;2022-10-16T16:21:03;1.90;;;1.80;;
14030;SDS011;7090;49.436;8.490;2022-10-16T16:23:29;2.00;;;2.00;;
14030;SDS011;7090;49.436;8.490;2022-10-16T16:26:05;3.42;;;3.25;;
14030;SDS011;7090;49.436;8.490;2022-10-16T16:28:31;2.42;;;2.33;;
14030;SDS011;7090;49.436;8.490;2022-10-16T16:30:57;2.30;;;2.22;;
14030;SDS011;7090;49.436;8.490;2022-10-16T16:33:23;2.42;;;2.33;;
14030;SDS011;7090;49.436;8.490;2022-10-16T16:35:48;2.65;;;2.55;;
14030;SDS011;7090;49.436;8.490;2022-10-16T16:38:14;4.97;;;4.43;;
14030;SDS011;7090;49.436;8.490;2022-10-16T16:40:40;2.88;;;2.78;;
14030;SDS011;7090;49.436;8.490;2022-10-16T16:43:05;2.30;;;2.20;;
14030;SDS011;7090;49.436;8.490;2022-10-16T16:45:34;2.80;;;2.70;;
14030;SDS011;7090;49.436;8.490;2022-10-16T16:48:00;2.20;;;2.20;;
14030;SDS011;7090;49.436;8.490;2022-10-16T16:50:26;2.95;;;2.85;;
14030;SDS011;7090;49.436;8.490;2022-10-16T16:52:51;2.60;;;2.50;;
14030;SDS011;7090;49.436;8.490;2022-10-16T16:55:17;2.42;;;2.33;;
14030;SDS011;7090;49.436;8.490;2022-10-16T16:57:42;2.60;;;2.50;;
14030;SDS011;7090;49.436;8.490;2022-10-16T17:00:08;2.25;;;2.25;;
14030;SDS011;7090;49.436;8.490;2022-10-16T17:02:34;2.45;;;2.38;;
14030;SDS011;7090;49.436;8.490;2022-10-16T17:04:59;2.30;;;2.30;;
14030;SDS011;7090;49.436;8.490;2022-10-16T17:07:25;2.78;;;2.67;;
14030;SDS011;7090;49.436;8.490;2022-10-16T17:09:52;3.35;;;3.25;;
14030;SDS011;7090;49.436;8.490;2022-10-16T17:12:17;2.60;;;2.50;;
14030;SDS011;7090;49.436;8.490;2022-10-16T17:14:43;2.60;;;2.50;;
14030;SDS011;7090;49.436;8.490;2022-10-16T17:17:08;2.60;;;2.50;;
14030;SDS011;7090;49.436;8.490;2022-10-16T17:19:34;3.50;;;3.20;;
14030;SDS011;7090;49.436;8.490;2022-10-16T17:22:00;2.30;;;2.30;;